首页
METAR-TAF:

METAR-TAF

机场 :

Ponta Delgada, 亚速尔群岛, 葡萄牙

纬度: 37-44N, 经度: 025-42W, 海拔: 71米

当前天气观测

该预报发布于35分钟前的22:30 UTC
风速8节,风向东南
温度 15°C
湿度 94%
气压 1028 hPa
能见度10公里或以上
散云层高于1600英尺
多云层高于2800英尺

METAR: LPPD 232230Z 13008KT 9999 SCT016 BKN028 15/14 Q1028

时间: 22:05 (23:05 UTC)

预报

该预报发布于6小时和5分钟前的17:00 UTC
预报有效从23日的 18点(UTC)到 24日的 18点(UTC)
风速10节,风向东南
能见度10公里或以上
散云层高于1500英尺
多云层高于3000英尺
短暂存在
从 23日的 18点(UTC)到 24日的 18点(UTC)
散云层高于1800英尺
成为
从 24日的 10点(UTC)到 24日的 12点(UTC)
风速15节,风向南转南东

TAF: LPPD 231700Z 2318/2418 13010KT 9999 SCT015 BKN030 TEMPO 2318/2418 SCT018 BECMG 2410/2412 16015KT

超过4000个机场的气象观测和天气预报(METAR&TAF报告)。

可查询的气象台以黄色和红色小点在地图上表示。

将鼠标移到小点上方,可查看气象台名称。

然后点击查看天气观测和预报。

如需切换地图:点击带黑十字的绿色按钮放大地图;点击带横线的绿色按钮缩小地图;或者点击绿色箭头查看邻近地区的地图。


METAR-TAF: